Time;durP1;ratioP1;P1;durP2;ratioP2;P2;SDS_P1;SDS_P2;PMS_P1;PMS_P2;Temp;Humidity;BMP_temperature;BMP_pressure;BME280_temperature;BME280_humidity;BME280_pressure;Samples;Min_cycle;Max_cycle;Signal;HPM_P1;HPM_P2
2021/10/06 06:09:12;;;;;;;8.10;4.43;;;11.10;99.90;;;;;;4998068;27;20875;-67
2021/10/06 06:11:38;;;;;;;6.32;4.32;;;11.10;99.90;;;;;;5011453;28;20029;-67
2021/10/06 06:14:05;;;;;;;7.20;4.35;;;11.30;99.90;;;;;;5007852;28;20542;-67
2021/10/06 06:16:31;;;;;;;6.35;4.40;;;11.60;99.90;;;;;;5009492;28;20118;-67
2021/10/06 06:18:57;;;;;;;6.00;3.90;;;11.90;99.90;;;;;;5010488;28;20473;-67
2021/10/06 06:21:23;;;;;;;5.53;3.33;;;12.20;99.90;;;;;;5008704;28;20033;-67
2021/10/06 06:23:49;;;;;;;6.85;3.05;;;12.40;99.90;;;;;;5002132;28;20037;-67
2021/10/06 06:26:14;;;;;;;4.28;2.72;;;12.60;99.30;;;;;;5007981;28;20041;-67
2021/10/06 06:28:40;;;;;;;5.88;2.45;;;12.80;98.30;;;;;;5008004;28;20034;-67
2021/10/06 06:31:09;;;;;;;5.95;2.13;;;12.90;97.00;;;;;;5005184;28;20023;-67
2021/10/06 06:33:35;;;;;;;4.75;2.28;;;13.00;96.80;;;;;;5009415;28;20038;-67
2021/10/06 06:36:01;;;;;;;2.28;1.60;;;13.10;96.40;;;;;;5009483;28;20041;-67
2021/10/06 06:38:27;;;;;;;6.60;2.63;;;13.20;96.30;;;;;;5004213;28;20037;-69
2021/10/06 06:40:54;;;;;;;2.25;1.77;;;13.30;95.60;;;;;;5011608;28;20153;-67
2021/10/06 06:43:20;;;;;;;2.03;1.60;;;13.30;95.50;;;;;;5000359;28;20033;-70
2021/10/06 06:45:45;;;;;;;3.75;1.80;;;13.30;95.60;;;;;;5009970;28;20118;-68
2021/10/06 06:48:11;;;;;;;2.25;1.55;;;13.40;94.70;;;;;;5006237;28;20040;-71
2021/10/06 06:50:37;;;;;;;3.40;1.73;;;13.40;94.60;;;;;;5007500;28;20681;-68
2021/10/06 06:53:03;;;;;;;2.22;1.80;;;13.50;94.90;;;;;;5008950;28;20045;-67
2021/10/06 06:55:29;;;;;;;5.57;1.70;;;13.40;94.70;;;;;;5010092;28;20426;-67
2021/10/06 06:57:55;;;;;;;3.35;1.58;;;13.50;94.70;;;;;;5008546;28;20598;-68
2021/10/06 07:00:21;;;;;;;6.22;1.92;;;13.60;94.70;;;;;;5004991;28;20121;-68
2021/10/06 07:02:47;;;;;;;5.00;1.40;;;13.70;94.30;;;;;;5004895;28;20030;-68
2021/10/06 07:05:12;;;;;;;5.70;1.90;;;13.70;93.80;;;;;;5004138;28;20030;-67
2021/10/06 07:07:38;;;;;;;3.95;1.58;;;13.70;93.50;;;;;;5009480;28;20401;-68
2021/10/06 07:10:05;;;;;;;3.28;1.30;;;13.80;93.90;;;;;;5008297;28;20057;-68
2021/10/06 07:12:30;;;;;;;3.38;1.45;;;13.80;93.60;;;;;;5007893;28;20045;-68
2021/10/06 07:14:56;;;;;;;3.28;1.77;;;13.80;93.30;;;;;;5006143;28;20042;-68
2021/10/06 07:17:22;;;;;;;2.42;1.25;;;13.80;93.10;;;;;;5005327;28;20333;-67
2021/10/06 07:19:48;;;;;;;4.85;1.30;;;13.80;92.80;;;;;;4999716;28;20039;-67
2021/10/06 07:22:16;;;;;;;1.77;1.25;;;14.00;92.20;;;;;;4994847;28;20029;-66
2021/10/06 07:24:42;;;;;;;6.47;1.45;;;14.60;91.00;;;;;;4987758;28;20034;-67
2021/10/06 07:27:09;;;;;;;5.05;1.25;;;14.70;89.90;;;;;;4989976;28;20971;-69
2021/10/06 07:29:35;;;;;;;2.45;1.42;;;14.50;90.80;;;;;;4991533;28;20065;-68
2021/10/06 07:32:01;;;;;;;3.08;1.58;;;14.40;90.70;;;;;;4987529;28;20113;-68
2021/10/06 07:34:26;;;;;;;5.35;0.80;;;14.40;91.40;;;;;;4997323;28;20034;-68
2021/10/06 07:36:52;;;;;;;1.67;1.00;;;14.40;91.40;;;;;;4992192;28;20040;-68
2021/10/06 07:39:18;;;;;;;3.53;1.10;;;14.40;91.60;;;;;;4995289;28;20112;-68
2021/10/06 07:41:44;;;;;;;2.90;1.00;;;14.40;91.00;;;;;;4995009;28;20075;-67
2021/10/06 07:44:11;;;;;;;2.25;1.10;;;14.30;90.80;;;;;;4995472;28;20450;-68
2021/10/06 07:46:37;;;;;;;4.10;1.30;;;14.40;91.30;;;;;;4997147;28;20110;-67
2021/10/06 07:49:03;;;;;;;3.88;0.93;;;14.40;90.80;;;;;;4989598;28;20048;-67
2021/10/06 07:51:29;;;;;;;3.08;0.85;;;14.40;90.40;;;;;;4989928;28;20045;-68
2021/10/06 07:53:56;;;;;;;2.70;1.00;;;14.40;90.90;;;;;;4989873;28;20080;-67
2021/10/06 07:56:23;;;;;;;3.92;1.15;;;14.40;90.30;;;;;;4995841;28;20533;-68
2021/10/06 07:58:48;;;;;;;4.40;0.90;;;14.50;91.00;;;;;;4995611;28;20045;-67
2021/10/06 08:01:14;;;;;;;7.03;3.35;;;14.60;91.10;;;;;;4994679;28;20030;-67
2021/10/06 08:03:40;;;;;;;5.10;1.08;;;14.60;90.40;;;;;;4996298;28;20060;-67
2021/10/06 08:06:05;;;;;;;3.00;1.30;;;14.60;90.40;;;;;;4990764;28;20034;-67
2021/10/06 08:08:31;;;;;;;4.25;1.00;;;14.70;90.60;;;;;;4991512;28;20038;-67
2021/10/06 08:10:59;;;;;;;2.25;1.20;;;14.80;90.40;;;;;;4990159;28;20036;-66
2021/10/06 08:13:26;;;;;;;4.32;1.20;;;14.80;90.00;;;;;;4994474;28;20485;-68
2021/10/06 08:15:52;;;;;;;1.67;1.13;;;14.80;90.20;;;;;;4995704;28;20652;-69
2021/10/06 08:18:20;;;;;;;2.97;0.80;;;14.90;90.80;;;;;;4989014;28;20034;-68
2021/10/06 08:20:50;;;;;;;4.13;1.15;;;14.90;91.00;;;;;;4990648;28;20065;-68
2021/10/06 08:23:17;;;;;;;2.42;0.80;;;15.00;90.20;;;;;;4990832;28;20155;-67
2021/10/06 08:25:48;;;;;;;3.55;1.15;;;15.10;90.10;;;;;;4989723;28;20041;-67
2021/10/06 08:28:14;;;;;;;1.40;0.93;;;15.10;89.50;;;;;;4992234;28;20125;-67
2021/10/06 08:30:40;;;;;;;2.22;1.20;;;15.10;90.00;;;;;;4989954;28;20829;-67
2021/10/06 08:33:07;;;;;;;4.32;1.00;;;15.20;89.60;;;;;;4993455;28;20062;-67
2021/10/06 08:35:33;;;;;;;3.00;0.90;;;15.30;88.00;;;;;;4997123;28;20038;-67
2021/10/06 08:38:03;;;;;;;4.78;1.08;;;15.40;88.40;;;;;;4990081;28;20026;-67
2021/10/06 08:40:29;;;;;;;1.50;0.80;;;15.40;87.90;;;;;;4986803;28;20038;-66
2021/10/06 08:42:55;;;;;;;0.73;0.73;;;15.60;87.30;;;;;;4987234;28;20034;-66
2021/10/06 08:45:20;;;;;;;3.15;0.90;;;15.70;87.40;;;;;;4989640;28;20478;-65
2021/10/06 08:47:46;;;;;;;5.75;1.00;;;16.00;85.30;;;;;;4990589;28;20061;-66
2021/10/06 08:50:14;;;;;;;4.00;0.80;;;16.70;81.50;;;;;;4991684;28;20049;-66
2021/10/06 08:52:44;;;;;;;2.28;0.88;;;17.40;80.40;;;;;;4990681;28;20046;-65
2021/10/06 08:55:10;;;;;;;3.03;0.73;;;18.20;76.80;;;;;;4989391;28;20042;-66
2021/10/06 08:57:36;;;;;;;2.60;0.88;;;19.00;73.80;;;;;;4991907;28;20034;-66
2021/10/06 09:00:04;;;;;;;4.07;0.80;;;19.60;68.30;;;;;;4991801;28;20119;-65
2021/10/06 09:02:39;;;;;;;2.95;1.05;;;20.10;66.30;;;;;;4985151;28;20091;-66
2021/10/06 09:05:07;;;;;;;1.23;0.68;;;20.20;67.00;;;;;;4989391;28;20045;-66
2021/10/06 09:07:32;;;;;;;3.05;1.00;;;19.90;70.60;;;;;;4987979;28;20037;-67
2021/10/06 09:10:14;;;;;;;1.80;0.90;;;19.30;67.50;;;;;;4987962;28;20375;-65
2021/10/06 09:12:52;;;;;;;3.85;0.90;;;19.10;69.50;;;;;;4984934;28;20045;-66
2021/10/06 09:15:18;;;;;;;7.35;1.17;;;19.30;70.00;;;;;;4990596;28;20045;-67
2021/10/06 09:17:54;;;;;;;4.47;0.80;;;19.10;67.30;;;;;;4990944;28;20042;-67
2021/10/06 09:20:20;;;;;;;2.10;0.90;;;18.70;70.20;;;;;;4990841;28;20034;-65
2021/10/06 09:23:00;;;;;;;2.40;0.50;;;18.40;71.70;;;;;;4988012;28;20034;-68
2021/10/06 09:25:31;;;;;;;2.58;0.90;;;18.10;71.80;;;;;;4991344;28;20153;-67
2021/10/06 09:27:57;;;;;;;2.97;0.80;;;17.90;72.70;;;;;;4986777;28;20048;-67
2021/10/06 09:30:24;;;;;;;0.70;0.68;;;18.10;73.70;;;;;;4995156;28;20807;-67
2021/10/06 09:32:49;;;;;;;3.65;0.88;;;18.50;71.90;;;;;;4990840;28;20050;-68
2021/10/06 09:35:25;;;;;;;4.90;0.90;;;18.80;70.50;;;;;;4989104;28;20118;-68
2021/10/06 09:37:54;;;;;;;1.73;0.80;;;19.10;69.10;;;;;;4989807;28;20040;-69
2021/10/06 09:40:24;;;;;;;1.63;0.65;;;19.70;66.00;;;;;;4986761;28;20080;-68
2021/10/06 09:42:55;;;;;;;1.75;0.90;;;20.10;63.60;;;;;;4991768;28;20041;-68
2021/10/06 09:45:33;;;;;;;2.60;0.73;;;20.50;64.00;;;;;;4993705;28;20034;-68
2021/10/06 09:48:06;;;;;;;2.47;0.73;;;20.70;60.30;;;;;;4987894;28;20045;-68
2021/10/06 09:50:35;;;;;;;2.50;0.88;;;20.50;63.40;;;;;;4988242;28;20038;-69
2021/10/06 09:53:27;;;;;;;1.65;0.60;;;20.20;61.70;;;;;;4989940;28;20073;-68
2021/10/06 09:55:52;;;;;;;1.63;0.60;;;19.80;62.40;;;;;;4986650;28;20838;-67
2021/10/06 09:58:19;;;;;;;2.50;0.93;;;19.60;62.90;;;;;;4990876;28;20083;-68
2021/10/06 10:00:47;;;;;;;1.25;0.60;;;19.30;63.20;;;;;;4986599;28;20059;-68
2021/10/06 10:03:12;;;;;;;1.83;0.98;;;18.90;66.60;;;;;;4988129;28;20064;-68
2021/10/06 10:05:40;;;;;;;4.47;0.82;;;18.70;67.10;;;;;;4990306;28;20109;-68
2021/10/06 10:08:07;;;;;;;1.98;0.77;;;18.50;67.80;;;;;;4986674;28;20053;-68
2021/10/06 10:10:34;;;;;;;2.92;0.80;;;18.20;67.80;;;;;;4988988;28;20046;-69
2021/10/06 10:13:01;;;;;;;1.73;0.98;;;18.10;71.10;;;;;;4987682;28;20044;-69
2021/10/06 10:15:27;;;;;;;3.10;0.88;;;17.90;69.50;;;;;;4987402;28;20722;-69
2021/10/06 10:18:04;;;;;;;2.35;0.70;;;17.80;71.30;;;;;;4992796;28;20049;-69
2021/10/06 10:20:34;;;;;;;2.08;0.60;;;17.70;70.90;;;;;;4987362;28;20030;-68
2021/10/06 10:23:03;;;;;;;1.15;0.60;;;17.80;73.10;;;;;;4992195;28;20034;-68
2021/10/06 10:25:31;;;;;;;3.75;0.75;;;17.90;70.70;;;;;;4991424;28;20034;-68
2021/10/06 10:28:05;;;;;;;2.75;0.90;;;18.00;70.20;;;;;;4990344;28;20034;-68
2021/10/06 10:30:32;;;;;;;4.20;0.80;;;18.10;70.40;;;;;;4990925;28;20015;-66
2021/10/06 10:32:59;;;;;;;2.45;0.80;;;18.20;71.40;;;;;;4989580;28;20742;-69
2021/10/06 10:35:42;;;;;;;1.38;0.80;;;18.20;69.00;;;;;;4992248;28;20153;-68
2021/10/06 10:38:16;;;;;;;1.92;0.85;;;18.20;68.90;;;;;;4990433;28;20481;-68
2021/10/06 10:40:50;;;;;;;2.22;0.60;;;18.30;68.10;;;;;;4988853;28;20038;-69
2021/10/06 10:43:19;;;;;;;2.22;1.00;;;18.30;68.60;;;;;;4990403;28;20041;-68
2021/10/06 10:45:49;;;;;;;1.92;0.65;;;18.30;68.70;;;;;;4989483;28;20037;-69
2021/10/06 10:48:20;;;;;;;1.75;0.60;;;18.20;68.10;;;;;;4998699;28;20070;-68
2021/10/06 10:50:45;;;;;;;0.85;0.65;;;18.00;68.60;;;;;;4989452;28;20086;-68
2021/10/06 10:53:16;;;;;;;3.83;0.90;;;18.00;69.00;;;;;;4988238;28;20046;-69
2021/10/06 10:55:52;;;;;;;2.25;0.88;;;18.00;69.10;;;;;;4989195;28;20046;-68
2021/10/06 10:58:43;;;;;;;2.10;0.70;;;18.00;66.60;;;;;;4989748;28;20050;-68
2021/10/06 11:01:14;;;;;;;1.70;0.60;;;18.00;67.20;;;;;;4990286;28;20018;-68
2021/10/06 11:04:11;;;;;;;3.22;0.90;;;17.90;66.70;;;;;;4993512;28;20041;-68
2021/10/06 11:06:38;;;;;;;;;;;17.90;67.60;;;;;;4990381;28;20061;-68
2021/10/06 11:09:32;;;;;;;4.22;0.80;;;17.90;68.40;;;;;;4987870;28;19928;-68
2021/10/06 11:12:07;;;;;;;2.42;0.80;;;17.90;68.10;;;;;;4996388;28;20042;-68
2021/10/06 11:14:40;;;;;;;3.13;0.60;;;18.00;67.00;;;;;;4978726;28;20125;-66
2021/10/06 11:17:20;;;;;;;4.57;0.82;;;18.00;67.00;;;;;;4991604;28;20038;-67
2021/10/06 11:19:55;;;;;;;4.13;0.85;;;18.20;68.20;;;;;;4992611;28;20026;-68
2021/10/06 11:22:23;;;;;;;5.25;3.63;;;18.20;69.40;;;;;;4988449;28;20040;-68
2021/10/06 11:24:53;;;;;;;15.93;5.85;;;18.20;67.30;;;;;;4994892;28;20498;-68
2021/10/06 11:27:20;;;;;;;4.43;3.05;;;18.20;67.00;;;;;;4990615;28;20069;-68
2021/10/06 11:29:48;;;;;;;5.22;0.93;;;18.20;67.50;;;;;;4993150;28;20523;-66
2021/10/06 11:32:14;;;;;;;2.40;0.60;;;18.30;68.00;;;;;;5003535;28;20057;-67
2021/10/06 11:34:48;;;;;;;1.10;0.60;;;18.40;66.10;;;;;;4991474;28;20132;-67
2021/10/06 11:37:16;;;;;;;4.85;0.70;;;18.50;66.20;;;;;;4991407;28;20120;-68
2021/10/06 11:39:42;;;;;;;2.75;0.60;;;18.50;64.90;;;;;;4989713;28;20477;-68
2021/10/06 11:42:08;;;;;;;2.45;0.80;;;18.60;66.70;;;;;;4986843;28;20034;-68
2021/10/06 11:44:35;;;;;;;0.65;0.50;;;18.70;65.60;;;;;;4995284;28;20037;-67
2021/10/06 11:47:06;;;;;;;3.75;1.00;;;18.70;65.80;;;;;;4989917;28;20041;-68
2021/10/06 11:49:34;;;;;;;4.07;0.70;;;18.80;65.90;;;;;;4993257;28;20125;-68
2021/10/06 11:52:01;;;;;;;2.00;0.68;;;18.70;66.20;;;;;;4993047;28;20083;-67
2021/10/06 11:54:27;;;;;;;1.38;0.73;;;18.70;64.70;;;;;;4995179;28;20037;-68
2021/10/06 11:56:55;;;;;;;2.75;0.70;;;18.60;64.60;;;;;;4996663;28;20025;-68
2021/10/06 11:59:25;;;;;;;2.33;0.70;;;18.60;66.10;;;;;;4995260;28;20685;-68
2021/10/06 12:01:59;;;;;;;2.65;0.70;;;18.50;65.20;;;;;;4991185;28;20030;-68
2021/10/06 12:04:32;;;;;;;3.38;1.17;;;18.50;64.50;;;;;;4994146;28;20026;-68
2021/10/06 12:07:00;;;;;;;2.22;0.77;;;18.50;66.90;;;;;;4995967;28;20068;-68
2021/10/06 12:09:37;;;;;;;2.92;0.70;;;18.40;65.40;;;;;;4996028;28;20038;-68
2021/10/06 12:12:26;;;;;;;2.25;0.88;;;18.40;67.40;;;;;;4992035;28;20030;-68
2021/10/06 12:15:11;;;;;;;4.93;1.02;;;18.40;65.80;;;;;;4994072;28;20049;-67
2021/10/06 12:17:43;;;;;;;2.65;0.70;;;18.40;66.50;;;;;;4989245;28;20044;-67
2021/10/06 12:20:14;;;;;;;1.25;0.77;;;18.30;67.10;;;;;;4989121;28;20427;-68
2021/10/06 12:22:54;;;;;;;5.22;1.00;;;18.30;66.30;;;;;;4987961;28;20038;-67
2021/10/06 12:25:21;;;;;;;2.83;0.90;;;18.30;67.30;;;;;;4991679;28;20559;-68
2021/10/06 12:27:53;;;;;;;3.63;0.85;;;18.30;66.40;;;;;;4984858;28;20048;-68
2021/10/06 12:30:29;;;;;;;3.83;1.00;;;18.40;66.90;;;;;;4993606;28;20067;-67
2021/10/06 12:33:02;;;;;;;;;;;18.30;66.70;;;;;;4988614;28;20048;-69
2021/10/06 12:35:28;;;;;;;1.80;0.60;;;18.30;67.00;;;;;;4988295;28;19914;-69
2021/10/06 12:38:04;;;;;;;3.10;0.77;;;18.30;64.80;;;;;;4987995;28;20080;-69
2021/10/06 12:40:41;;;;;;;4.75;0.80;;;18.30;64.60;;;;;;4994086;28;20069;-69
2021/10/06 12:43:14;;;;;;;2.17;0.90;;;18.20;65.30;;;;;;4994442;28;20025;-69
2021/10/06 12:46:01;;;;;;;3.53;0.70;;;18.10;66.40;;;;;;4994173;28;20555;-69
2021/10/06 12:48:38;;;;;;;2.83;0.88;;;18.20;67.20;;;;;;4994080;28;20038;-68
2021/10/06 12:51:06;;;;;;;4.93;0.90;;;18.20;67.00;;;;;;4989243;28;20408;-69
2021/10/06 12:53:33;;;;;;;3.10;0.90;;;18.30;65.10;;;;;;4990404;28;20111;-72
2021/10/06 12:55:58;;;;;;;2.75;0.75;;;18.10;64.50;;;;;;4992498;28;20159;-71
2021/10/06 12:58:24;;;;;;;2.38;1.02;;;18.10;63.40;;;;;;4992687;28;20529;-70
2021/10/06 13:00:51;;;;;;;1.23;0.77;;;18.10;64.20;;;;;;4994832;28;20026;-71
2021/10/06 13:03:16;;;;;;;3.47;0.85;;;18.00;65.30;;;;;;4992273;28;20910;-70
2021/10/06 13:05:42;;;;;;;1.13;0.60;;;18.00;65.50;;;;;;4991861;28;20049;-69
2021/10/06 13:08:15;;;;;;;1.48;0.70;;;17.90;66.40;;;;;;4991124;28;20731;-69
2021/10/06 13:10:42;;;;;;;1.55;0.60;;;17.90;65.70;;;;;;5008590;28;20813;-68
2021/10/06 13:13:07;;;;;;;2.25;0.80;;;18.00;66.60;;;;;;4997037;28;20070;-68
2021/10/06 13:20:57;;;;;;;2.17;0.70;;;18.20;65.80;;;;;;4686171;22;20115;-67
2021/10/06 13:23:23;;;;;;;3.78;0.85;;;18.10;64.90;;;;;;4980915;28;20916;-66
2021/10/06 13:25:49;;;;;;;3.20;1.05;;;18.00;66.40;;;;;;4995834;28;20325;-66
2021/10/06 13:28:15;;;;;;;2.45;1.10;;;18.00;66.70;;;;;;4999337;28;20434;-66
2021/10/06 13:30:41;;;;;;;2.65;0.95;;;18.00;66.00;;;;;;4999993;28;20033;-66
2021/10/06 13:33:08;;;;;;;1.90;0.70;;;18.00;67.40;;;;;;4999765;28;20707;-67
2021/10/06 13:35:34;;;;;;;3.60;0.88;;;18.00;67.10;;;;;;4999738;28;20041;-66
2021/10/06 13:38:00;;;;;;;3.38;1.13;;;18.10;67.80;;;;;;4997943;28;20037;-66
2021/10/06 13:40:25;;;;;;;2.53;1.02;;;18.20;67.70;;;;;;4994132;28;20042;-66
2021/10/06 13:42:51;;;;;;;1.95;0.70;;;18.20;68.00;;;;;;4992452;28;20100;-66
2021/10/06 13:45:18;;;;;;;2.70;0.55;;;18.20;66.00;;;;;;4996233;28;20034;-67
2021/10/06 13:47:43;;;;;;;2.78;1.00;;;18.20;66.50;;;;;;4996969;28;20052;-67
2021/10/06 13:50:09;;;;;;;2.60;0.82;;;18.20;65.10;;;;;;4998449;28;20038;-67
2021/10/06 13:52:36;;;;;;;2.50;0.47;;;18.20;65.80;;;;;;4998180;28;20030;-67
2021/10/06 13:55:02;;;;;;;2.00;0.68;;;18.20;66.20;;;;;;4996837;28;20037;-67
2021/10/06 13:57:28;;;;;;;3.40;1.10;;;18.20;66.00;;;;;;4997690;28;20038;-66
2021/10/06 13:59:53;;;;;;;1.75;0.60;;;18.20;66.40;;;;;;4997983;28;20041;-67
2021/10/06 14:02:19;;;;;;;6.30;0.93;;;18.20;65.50;;;;;;4997775;28;20041;-66
2021/10/06 14:04:45;;;;;;;3.33;0.73;;;18.20;65.40;;;;;;4998023;28;20022;-67
2021/10/06 14:07:10;;;;;;;3.97;0.90;;;18.20;64.50;;;;;;4997587;28;20108;-66
2021/10/06 14:09:36;;;;;;;2.50;0.70;;;18.20;65.40;;;;;;4998642;28;20037;-66
2021/10/06 14:12:03;;;;;;;3.42;0.75;;;18.20;63.40;;;;;;4998876;28;20034;-67
2021/10/06 14:14:29;;;;;;;3.58;0.88;;;18.10;63.80;;;;;;4999258;28;20033;-67
2021/10/06 14:16:54;;;;;;;1.15;0.73;;;18.00;64.00;;;;;;4998563;28;20544;-67
2021/10/06 14:19:20;;;;;;;3.05;0.90;;;18.00;63.70;;;;;;4998909;28;20034;-66
2021/10/06 14:21:46;;;;;;;2.42;1.10;;;17.90;65.20;;;;;;4999122;28;20038;-67
2021/10/06 14:24:11;;;;;;;4.20;0.68;;;17.80;65.40;;;;;;4997598;28;20046;-67
2021/10/06 14:26:37;;;;;;;6.85;0.82;;;17.80;65.20;;;;;;4973305;28;20124;-67
2021/10/06 14:29:04;;;;;;;1.90;0.85;;;17.70;64.80;;;;;;4999154;28;20028;-67
2021/10/06 14:31:30;;;;;;;2.30;0.73;;;17.70;66.40;;;;;;5002404;28;20132;-67
2021/10/06 14:33:56;;;;;;;2.35;0.70;;;17.80;67.20;;;;;;5002692;28;20605;-68
2021/10/06 14:36:22;;;;;;;3.25;0.90;;;17.90;65.30;;;;;;5002391;28;20044;-67
2021/10/06 14:38:48;;;;;;;2.38;0.90;;;17.90;64.50;;;;;;5000554;28;20034;-67
2021/10/06 14:41:14;;;;;;;4.55;0.80;;;18.00;63.90;;;;;;5002381;28;20413;-68
2021/10/06 14:43:39;;;;;;;2.20;0.70;;;18.00;64.00;;;;;;5002046;28;20065;-67
2021/10/06 14:46:05;;;;;;;5.80;1.85;;;17.90;64.50;;;;;;5002515;28;20103;-67
2021/10/06 14:48:31;;;;;;;3.80;0.80;;;17.90;65.10;;;;;;5002648;28;20772;-66
2021/10/06 14:50:59;;;;;;;1.38;0.55;;;17.90;63.20;;;;;;5003176;28;20037;-67
2021/10/06 14:53:25;;;;;;;3.83;0.70;;;17.90;64.40;;;;;;5001737;28;20054;-66
2021/10/06 14:55:51;;;;;;;3.03;0.80;;;17.90;64.30;;;;;;4999166;28;20030;-67
2021/10/06 14:58:17;;;;;;;2.65;0.60;;;17.90;65.40;;;;;;4973220;28;20045;-67
2021/10/06 15:00:46;;;;;;;2.33;0.55;;;17.90;63.20;;;;;;5001463;28;20029;-67
2021/10/06 15:03:16;;;;;;;1.45;0.75;;;17.90;64.40;;;;;;4983828;28;20088;-66
2021/10/06 15:05:42;;;;;;;2.40;0.70;;;18.00;64.20;;;;;;4990024;28;20124;-67
2021/10/06 15:08:08;;;;;;;6.32;0.80;;;18.00;61.80;;;;;;5001213;28;20659;-68
2021/10/06 15:10:40;;;;;;;2.47;0.90;;;18.10;64.50;;;;;;5001873;28;20042;-67
2021/10/06 15:13:08;;;;;;;6.43;1.00;;;18.20;64.10;;;;;;4998543;28;20539;-67
2021/10/06 15:15:35;;;;;;;3.15;0.60;;;18.20;61.40;;;;;;4984117;28;20037;-67
2021/10/06 15:18:02;;;;;;;1.52;0.70;;;18.20;60.80;;;;;;5001849;28;20041;-67
2021/10/06 15:20:28;;;;;;;2.15;0.63;;;18.20;62.00;;;;;;4999513;28;20033;-66
2021/10/06 15:22:53;;;;;;;3.75;0.70;;;18.20;62.90;;;;;;5000912;28;20095;-67
2021/10/06 15:25:20;;;;;;;2.83;1.02;;;18.20;60.40;;;;;;5001488;28;20030;-66
2021/10/06 15:27:46;;;;;;;2.42;0.88;;;18.10;60.30;;;;;;5000640;28;20611;-67
2021/10/06 15:30:13;;;;;;;0.60;0.55;;;18.00;60.80;;;;;;4992133;28;20041;-67
2021/10/06 15:32:40;;;;;;;2.75;0.75;;;17.90;59.70;;;;;;5001427;28;20033;-67
2021/10/06 15:35:08;;;;;;;1.42;0.60;;;17.80;62.00;;;;;;5000414;28;20508;-67
2021/10/06 15:37:35;;;;;;;1.58;0.50;;;17.80;63.20;;;;;;5000419;28;20030;-67
2021/10/06 15:40:07;;;;;;;2.05;0.60;;;17.70;65.60;;;;;;5001044;28;20048;-67
2021/10/06 15:42:33;;;;;;;2.30;0.80;;;17.70;65.90;;;;;;4980444;28;20038;-67
2021/10/06 15:45:01;;;;;;;0.85;0.43;;;17.70;66.30;;;;;;5000286;28;20038;-67
2021/10/06 15:47:28;;;;;;;2.63;0.70;;;17.70;66.80;;;;;;4992299;28;20413;-67
2021/10/06 15:49:54;;;;;;;0.88;0.52;;;17.70;69.10;;;;;;5004615;28;20022;-68
2021/10/06 15:52:20;;;;;;;2.97;0.80;;;17.60;67.60;;;;;;4998132;28;20068;-66
2021/10/06 15:54:46;;;;;;;1.38;0.70;;;17.60;66.70;;;;;;4997359;28;20029;-67
2021/10/06 15:57:12;;;;;;;1.38;0.50;;;17.60;69.10;;;;;;4998798;28;20030;-69
2021/10/06 15:59:38;;;;;;;3.28;0.80;;;17.60;70.70;;;;;;4998712;28;20068;-68
2021/10/06 16:02:04;;;;;;;2.45;0.70;;;17.50;70.30;;;;;;5000213;28;20029;-68
2021/10/06 16:04:30;;;;;;;2.08;0.90;;;17.50;70.90;;;;;;4999415;28;20142;-68
2021/10/06 16:06:55;;;;;;;2.55;0.65;;;17.50;71.70;;;;;;4999840;28;20113;-68
2021/10/06 16:09:21;;;;;;;1.17;0.70;;;17.50;72.00;;;;;;4982940;28;20042;-67
2021/10/06 16:11:47;;;;;;;1.83;0.68;;;17.50;72.70;;;;;;5000821;28;20040;-66
2021/10/06 16:14:13;;;;;;;3.85;0.52;;;17.40;73.90;;;;;;4999111;28;20042;-65
2021/10/06 16:16:39;;;;;;;3.35;0.90;;;17.30;74.30;;;;;;5001589;28;20669;-67
2021/10/06 16:19:05;;;;;;;0.80;0.50;;;17.30;74.00;;;;;;5002349;28;20033;-67
2021/10/06 16:21:35;;;;;;;1.27;0.52;;;17.10;72.90;;;;;;4998113;28;20041;-66
2021/10/06 16:24:01;;;;;;;2.10;0.70;;;17.00;73.60;;;;;;5001496;28;20041;-67
2021/10/06 16:26:27;;;;;;;2.63;0.85;;;16.90;72.60;;;;;;4997208;28;20069;-66
2021/10/06 16:28:54;;;;;;;4.15;1.20;;;16.70;73.00;;;;;;4997869;28;20105;-66
2021/10/06 16:31:20;;;;;;;3.50;0.82;;;16.50;74.20;;;;;;4996419;28;20347;-66
2021/10/06 16:33:46;;;;;;;3.38;0.95;;;16.40;74.80;;;;;;4998334;28;20030;-67
2021/10/06 16:36:11;;;;;;;2.08;0.70;;;16.20;75.30;;;;;;4998068;28;20029;-67
2021/10/06 16:38:37;;;;;;;4.43;1.10;;;16.10;75.70;;;;;;4999776;28;20037;-67
2021/10/06 16:41:04;;;;;;;2.00;0.98;;;16.00;75.90;;;;;;4976473;28;20050;-66
2021/10/06 16:43:30;;;;;;;2.15;1.02;;;15.90;76.80;;;;;;4968542;28;20440;-67
2021/10/06 16:45:57;;;;;;;2.55;1.20;;;15.70;77.10;;;;;;5002447;28;20037;-66
2021/10/06 16:48:25;;;;;;;3.47;1.40;;;15.60;77.40;;;;;;5000551;28;20494;-67
2021/10/06 16:50:52;;;;;;;6.10;2.13;;;15.50;77.50;;;;;;5003001;28;20041;-66
2021/10/06 16:53:21;;;;;;;5.50;2.40;;;15.40;77.70;;;;;;4980370;28;20836;-66
2021/10/06 16:55:52;;;;;;;6.63;2.92;;;15.30;78.50;;;;;;5004636;28;20029;-67
2021/10/06 16:58:18;;;;;;;10.82;3.42;;;15.30;78.30;;;;;;5005618;28;20091;-67
2021/10/06 17:00:44;;;;;;;6.82;2.60;;;15.20;79.10;;;;;;5002520;28;20080;-67
2021/10/06 17:03:10;;;;;;;5.68;2.47;;;15.20;79.80;;;;;;5002044;28;20710;-67
2021/10/06 17:05:44;;;;;;;5.18;1.60;;;15.10;80.10;;;;;;5000921;28;20448;-66
2021/10/06 17:08:10;;;;;;;3.00;1.13;;;15.00;80.40;;;;;;5000232;28;20512;-65
2021/10/06 17:10:38;;;;;;;2.65;1.20;;;15.00;80.70;;;;;;4971649;28;20037;-67
2021/10/06 17:13:05;;;;;;;2.67;0.80;;;14.90;81.30;;;;;;5001312;28;20041;-67
2021/10/06 17:15:31;;;;;;;2.80;0.90;;;14.90;81.40;;;;;;5001678;28;20033;-69
2021/10/06 17:17:57;;;;;;;5.88;1.10;;;14.80;81.50;;;;;;4999598;28;20042;-67
2021/10/06 17:20:23;;;;;;;4.78;1.20;;;14.80;82.10;;;;;;5000605;28;20095;-67
2021/10/06 17:22:50;;;;;;;4.00;1.00;;;14.80;83.00;;;;;;5000696;28;20033;-67
2021/10/06 17:25:16;;;;;;;2.63;0.90;;;14.80;83.20;;;;;;5001533;28;20088;-66
2021/10/06 17:27:43;;;;;;;4.43;1.83;;;14.80;83.40;;;;;;5002234;28;20038;-66
2021/10/06 17:30:10;;;;;;;3.25;1.30;;;14.80;83.70;;;;;;5002211;28;20512;-68
2021/10/06 17:32:36;;;;;;;1.88;1.15;;;14.70;83.80;;;;;;5002031;28;20770;-67
2021/10/06 17:35:03;;;;;;;2.50;1.30;;;14.70;83.80;;;;;;5002667;28;20125;-67
2021/10/06 17:37:34;;;;;;;1.98;1.35;;;14.60;84.20;;;;;;5001796;28;20108;-67
2021/10/06 17:40:04;;;;;;;2.83;1.60;;;14.50;84.40;;;;;;4984688;28;20081;-66
2021/10/06 17:42:29;;;;;;;2.67;1.58;;;14.50;84.50;;;;;;4992614;28;20464;-68
2021/10/06 17:44:55;;;;;;;3.90;1.30;;;14.40;84.80;;;;;;4976449;28;20066;-67
2021/10/06 17:47:21;;;;;;;1.80;1.30;;;14.30;84.90;;;;;;4983011;28;20092;-67
2021/10/06 17:49:47;;;;;;;3.45;1.70;;;14.30;85.30;;;;;;5000741;28;20034;-67
2021/10/06 17:52:13;;;;;;;4.82;2.47;;;14.30;85.70;;;;;;5000627;28;20022;-66
2021/10/06 17:54:39;;;;;;;4.43;1.77;;;14.30;85.80;;;;;;4999853;28;20753;-67
2021/10/06 17:57:04;;;;;;;4.10;2.30;;;14.20;85.90;;;;;;5000247;28;20088;-67
2021/10/06 17:59:32;;;;;;;3.05;2.03;;;14.20;86.20;;;;;;4999915;28;20030;-68
2021/10/06 18:01:58;;;;;;;4.32;2.00;;;14.10;86.50;;;;;;4982679;28;20773;-67
2021/10/06 18:04:25;;;;;;;3.05;1.73;;;14.10;87.00;;;;;;4982418;28;20030;-67
2021/10/06 18:06:50;;;;;;;4.13;1.70;;;14.00;87.00;;;;;;4980697;28;20044;-67
2021/10/06 18:09:16;;;;;;;5.55;2.13;;;14.00;87.40;;;;;;5000971;28;20033;-67
2021/10/06 18:11:43;;;;;;;4.80;1.70;;;14.00;87.80;;;;;;5001694;28;20046;-68
2021/10/06 18:14:09;;;;;;;2.63;1.52;;;13.90;88.10;;;;;;5000935;28;20038;-68
2021/10/06 18:16:34;;;;;;;2.85;1.40;;;13.90;88.10;;;;;;4984626;28;20472;-67
2021/10/06 18:19:00;;;;;;;3.58;1.60;;;13.90;88.20;;;;;;4971012;28;20042;-67
2021/10/06 18:21:26;;;;;;;2.22;1.60;;;13.90;88.50;;;;;;5001972;28;20041;-67
2021/10/06 18:23:52;;;;;;;2.20;1.50;;;13.80;88.70;;;;;;5000484;28;20038;-67
2021/10/06 18:26:17;;;;;;;3.85;1.40;;;13.80;89.20;;;;;;4999787;28;21029;-67
2021/10/06 18:28:45;;;;;;;3.05;1.42;;;13.80;89.40;;;;;;5000242;28;20037;-67
2021/10/06 18:31:12;;;;;;;2.15;1.33;;;13.70;89.70;;;;;;4983142;28;20516;-67
2021/10/06 18:33:37;;;;;;;2.50;1.42;;;13.70;89.80;;;;;;4983248;28;20041;-68
2021/10/06 18:36:04;;;;;;;2.58;1.35;;;13.70;89.70;;;;;;4981959;28;20037;-67
2021/10/06 18:38:35;;;;;;;3.78;1.60;;;13.60;89.60;;;;;;5000636;28;20034;-67
2021/10/06 18:41:03;;;;;;;2.15;1.50;;;13.60;89.70;;;;;;5000696;28;20052;-67
2021/10/06 18:43:28;;;;;;;8.05;1.98;;;13.60;89.60;;;;;;4998287;28;20038;-67
2021/10/06 18:45:55;;;;;;;3.67;1.45;;;13.60;89.60;;;;;;4983504;28;20041;-67
2021/10/06 18:48:21;;;;;;;3.70;1.70;;;13.60;89.70;;;;;;4999848;28;20037;-67
2021/10/06 18:50:47;;;;;;;3.83;1.63;;;13.60;89.80;;;;;;5000428;28;20084;-67
2021/10/06 18:53:13;;;;;;;4.15;1.80;;;13.50;90.00;;;;;;5001372;28;20120;-68
2021/10/06 18:55:39;;;;;;;3.03;1.90;;;13.50;90.00;;;;;;5000083;28;20618;-67
2021/10/06 18:58:05;;;;;;;3.55;1.60;;;13.40;90.00;;;;;;4999697;28;20034;-67
2021/10/06 19:00:30;;;;;;;3.45;1.80;;;13.40;90.20;;;;;;4983841;28;20755;-68
2021/10/06 19:02:56;;;;;;;4.03;1.70;;;13.40;90.30;;;;;;5001227;28;20042;-67
2021/10/06 19:05:25;;;;;;;3.55;1.63;;;13.40;90.30;;;;;;4983467;28;20030;-68